»·PEaware :: N833JS KCMA-KTOA

N833JS :: KCMA-KTOA

FLIGHT INFORMATION

Flight Status: Arrived
Operator: Privately registered:
United States
More flights under this callsign
Pilot: Todd T. (13067)
Aircraft: CESSNA 172 SKYHAWK
(C172)
More flights by this aircraft type
Origin: KCMA Camarillo
United States
Destination: KTOA Zamperini
United States
More flights between these airports :: More routes between these airports
Route: +COASTAL
File this flight plan on PilotEdge
Remarks:
Altitude:
(Current/Filed)
6,500ft
Speed:
(Current/Filed)
0kts
Departed: 29-Nov-17 07:29 PM
Arrived: 29-Nov-17 08:10 PM
Distance/Time
Traveled:
45nm/0:41
Distance/Time
To Go:
Arrived

Flight Plot

Page will automatically refresh every two minutes.

Flight plan parsing failed; only flown route is shown


Map Options




Map Legend


Flown Route
Filed Route
Departure Airport
Arrival Airport
Navaid (VOR, NDB)
Fix

Horizontal Profiles

Position Reports

Time Latitude Longitude Heading Altitude Ground
Speed
29-Nov-17 19:25 34.210384 -119.082047 359 75ft 0kts
29-Nov-17 19:26 34.210384 -119.082047 359 75ft 0kts
29-Nov-17 19:27 34.210384 -119.082047 359 75ft 0kts
29-Nov-17 19:28 34.210384 -119.082047 359 75ft 0kts
29-Nov-17 19:29 34.210611 -119.082046 0 75ft 5kts
29-Nov-17 19:30 34.211215 -119.084591 343 75ft 9kts
29-Nov-17 19:31 34.212927 -119.084592 358 75ft 0kts
29-Nov-17 19:32 34.212927 -119.084592 358 75ft 0kts
29-Nov-17 19:33 34.213677 -119.084845 285 75ft 9kts
29-Nov-17 19:34 34.212792 -119.105457 270 544ft 82kts
29-Nov-17 19:35 34.200263 -119.106454 85 1383ft 79kts
29-Nov-17 19:36 34.198367 -119.078907 92 2193ft 84kts
29-Nov-17 19:37 34.196388 -119.051552 99 3085ft 78kts
29-Nov-17 19:38 34.192899 -119.028352 95 3893ft 70kts
29-Nov-17 19:39 34.191817 -119.005307 98 4641ft 68kts
29-Nov-17 19:40 34.187863 -118.982952 105 5313ft 70kts
29-Nov-17 19:41 34.181005 -118.958392 111 5609ft 86kts
29-Nov-17 19:42 34.173255 -118.929261 109 5632ft 92kts
29-Nov-17 19:43 34.164506 -118.900999 112 5557ft 89kts
29-Nov-17 19:44 34.160832 -118.872481 95 5475ft 86kts
29-Nov-17 19:45 34.160355 -118.843728 97 5436ft 82kts
29-Nov-17 19:46 34.160750 -118.814795 89 5498ft 90kts
29-Nov-17 19:47 34.163373 -118.784244 84 5558ft 92kts
29-Nov-17 19:48 34.163576 -118.752745 93 5538ft 94kts
29-Nov-17 19:49 34.163473 -118.721602 93 5531ft 88kts
29-Nov-17 19:50 34.163470 -118.694258 93 5535ft 77kts
29-Nov-17 19:51 34.163405 -118.668570 93 5541ft 78kts
29-Nov-17 19:52 34.163240 -118.640370 93 5540ft 87kts
29-Nov-17 19:53 34.163021 -118.610535 93 5538ft 89kts
29-Nov-17 19:54 34.163131 -118.580362 90 5545ft 90kts
29-Nov-17 19:55 34.163556 -118.550150 113 5536ft 90kts
29-Nov-17 19:56 34.140798 -118.537526 154 5535ft 94kts
29-Nov-17 19:57 34.116739 -118.525378 143 5527ft 92kts
29-Nov-17 19:58 34.095119 -118.509550 151 5539ft 93kts
29-Nov-17 19:59 34.071531 -118.497410 154 5551ft 92kts
29-Nov-17 20:00 34.047577 -118.486923 153 5545ft 93kts
29-Nov-17 20:01 34.023543 -118.475636 153 5546ft 93kts
29-Nov-17 20:02 33.999702 -118.464395 152 5560ft 92kts
29-Nov-17 20:03 33.976889 -118.451357 150 5550ft 92kts
29-Nov-17 20:04 33.952634 -118.440559 155 5539ft 93kts
29-Nov-17 20:05 33.928459 -118.430019 140 5548ft 90kts
29-Nov-17 20:06 33.910194 -118.410190 135 5431ft 91kts
29-Nov-17 20:07 33.892600 -118.391816 138 4902ft 89kts
29-Nov-17 20:08 33.873455 -118.373887 137 4051ft 88kts
29-Nov-17 20:09 33.851035 -118.362173 159 3123ft 91kts
29-Nov-17 20:10 33.824697 -118.351968 154 1793ft 111kts
29-Nov-17 20:11 33.809890 -118.329031 122 1173ft 90kts
29-Nov-17 20:12 33.797139 -118.307190 144 908ft 72kts
29-Nov-17 20:13 33.791831 -118.320869 302 596ft 69kts
29-Nov-17 20:14 33.802617 -118.337363 312 98ft 42kts
29-Nov-17 20:15 33.806001 -118.344289 285 93ft 15kts
29-Nov-17 20:16 33.804657 -118.346514 221 93ft 0kts
29-Nov-17 20:17 33.804657 -118.346514 221 93ft 0kts
29-Nov-17 20:18 33.804657 -118.346514 221 93ft 0kts
29-Nov-17 20:19 33.804657 -118.346514 221 93ft 0kts
29-Nov-17 20:20 33.804657 -118.346514 221 93ft 0kts

Navigation Log

Ident Type
Flight plan parsing failed, navigation log unavailable